sensor_id;sensor_type;location;lat;lon;timestamp;P1;durP1;ratioP1;P2;durP2;ratioP2
60859;SDS011;46694;54.382;9.708;2023-12-04T00:02:17;37.13;;;24.60;;
60859;SDS011;46694;54.382;9.708;2023-12-04T00:04:42;41.73;;;26.87;;
60859;SDS011;46694;54.382;9.708;2023-12-04T00:07:08;33.30;;;24.13;;
60859;SDS011;46694;54.382;9.708;2023-12-04T00:09:34;44.53;;;23.77;;
60859;SDS011;46694;54.382;9.708;2023-12-04T00:12:00;41.77;;;24.70;;
60859;SDS011;46694;54.382;9.708;2023-12-04T00:14:25;36.10;;;25.27;;
60859;SDS011;46694;54.382;9.708;2023-12-04T00:16:51;38.03;;;24.90;;
60859;SDS011;46694;54.382;9.708;2023-12-04T00:19:17;39.83;;;26.20;;
60859;SDS011;46694;54.382;9.708;2023-12-04T00:21:43;51.47;;;27.03;;
60859;SDS011;46694;54.382;9.708;2023-12-04T00:24:09;36.05;;;24.15;;
60859;SDS011;46694;54.382;9.708;2023-12-04T00:26:35;34.50;;;23.90;;
60859;SDS011;46694;54.382;9.708;2023-12-04T00:29:01;60.30;;;25.13;;
60859;SDS011;46694;54.382;9.708;2023-12-04T00:31:27;38.22;;;26.80;;
60859;SDS011;46694;54.382;9.708;2023-12-04T00:33:53;32.05;;;24.27;;
60859;SDS011;46694;54.382;9.708;2023-12-04T00:36:19;36.67;;;25.27;;
60859;SDS011;46694;54.382;9.708;2023-12-04T00:38:45;34.27;;;24.47;;
60859;SDS011;46694;54.382;9.708;2023-12-04T00:41:11;43.33;;;25.73;;
60859;SDS011;46694;54.382;9.708;2023-12-04T00:43:37;36.20;;;24.10;;
60859;SDS011;46694;54.382;9.708;2023-12-04T00:46:03;45.93;;;26.90;;
60859;SDS011;46694;54.382;9.708;2023-12-04T00:48:28;38.28;;;24.83;;
60859;SDS011;46694;54.382;9.708;2023-12-04T00:50:54;45.23;;;26.00;;
60859;SDS011;46694;54.382;9.708;2023-12-04T00:53:20;43.87;;;28.80;;
60859;SDS011;46694;54.382;9.708;2023-12-04T00:55:46;37.73;;;26.40;;
60859;SDS011;46694;54.382;9.708;2023-12-04T00:58:12;42.57;;;26.23;;
60859;SDS011;46694;54.382;9.708;2023-12-04T01:00:38;48.73;;;27.33;;
60859;SDS011;46694;54.382;9.708;2023-12-04T01:03:04;46.43;;;25.50;;
60859;SDS011;46694;54.382;9.708;2023-12-04T01:05:29;44.00;;;27.50;;
60859;SDS011;46694;54.382;9.708;2023-12-04T01:07:55;44.13;;;25.70;;
60859;SDS011;46694;54.382;9.708;2023-12-04T01:10:21;39.47;;;25.53;;
60859;SDS011;46694;54.382;9.708;2023-12-04T01:12:47;45.33;;;27.83;;
60859;SDS011;46694;54.382;9.708;2023-12-04T01:15:13;42.40;;;26.70;;
60859;SDS011;46694;54.382;9.708;2023-12-04T01:17:39;46.75;;;30.83;;
60859;SDS011;46694;54.382;9.708;2023-12-04T01:20:05;48.23;;;25.63;;
60859;SDS011;46694;54.382;9.708;2023-12-04T01:22:32;43.38;;;26.40;;
60859;SDS011;46694;54.382;9.708;2023-12-04T01:24:58;40.73;;;24.90;;
60859;SDS011;46694;54.382;9.708;2023-12-04T01:27:24;34.83;;;24.43;;
60859;SDS011;46694;54.382;9.708;2023-12-04T01:29:49;42.03;;;25.77;;
60859;SDS011;46694;54.382;9.708;2023-12-04T01:32:15;40.20;;;24.90;;
60859;SDS011;46694;54.382;9.708;2023-12-04T01:34:41;47.40;;;27.37;;
60859;SDS011;46694;54.382;9.708;2023-12-04T01:37:07;37.80;;;25.33;;
60859;SDS011;46694;54.382;9.708;2023-12-04T01:39:33;42.33;;;27.75;;
60859;SDS011;46694;54.382;9.708;2023-12-04T01:41:59;46.97;;;26.77;;
60859;SDS011;46694;54.382;9.708;2023-12-04T01:44:25;35.40;;;24.17;;
60859;SDS011;46694;54.382;9.708;2023-12-04T01:46:51;43.47;;;25.30;;
60859;SDS011;46694;54.382;9.708;2023-12-04T01:49:17;46.37;;;24.93;;
60859;SDS011;46694;54.382;9.708;2023-12-04T01:51:43;49.40;;;26.67;;
60859;SDS011;46694;54.382;9.708;2023-12-04T01:54:10;41.25;;;26.25;;
60859;SDS011;46694;54.382;9.708;2023-12-04T01:56:36;37.92;;;25.58;;
60859;SDS011;46694;54.382;9.708;2023-12-04T01:59:02;43.45;;;27.85;;
60859;SDS011;46694;54.382;9.708;2023-12-04T02:01:29;39.08;;;26.23;;
60859;SDS011;46694;54.382;9.708;2023-12-04T02:03:56;33.50;;;21.80;;
60859;SDS011;46694;54.382;9.708;2023-12-04T02:06:22;45.38;;;25.42;;
60859;SDS011;46694;54.382;9.708;2023-12-04T02:08:50;47.55;;;24.75;;
60859;SDS011;46694;54.382;9.708;2023-12-04T02:11:16;39.25;;;22.77;;
60859;SDS011;46694;54.382;9.708;2023-12-04T02:13:42;43.33;;;23.50;;
60859;SDS011;46694;54.382;9.708;2023-12-04T02:16:09;31.77;;;22.35;;
60859;SDS011;46694;54.382;9.708;2023-12-04T02:18:36;40.00;;;24.63;;
60859;SDS011;46694;54.382;9.708;2023-12-04T02:21:03;32.13;;;24.00;;
60859;SDS011;46694;54.382;9.708;2023-12-04T02:23:29;45.45;;;22.73;;
60859;SDS011;46694;54.382;9.708;2023-12-04T02:26:03;44.90;;;23.03;;
60859;SDS011;46694;54.382;9.708;2023-12-04T02:28:46;27.23;;;20.45;;
60859;SDS011;46694;54.382;9.708;2023-12-04T02:31:17;32.45;;;22.75;;
60859;SDS011;46694;54.382;9.708;2023-12-04T02:33:44;41.17;;;25.83;;
60859;SDS011;46694;54.382;9.708;2023-12-04T02:36:12;31.85;;;24.05;;
60859;SDS011;46694;54.382;9.708;2023-12-04T02:38:38;48.17;;;22.13;;
60859;SDS011;46694;54.382;9.708;2023-12-04T02:41:08;39.80;;;23.30;;
60859;SDS011;46694;54.382;9.708;2023-12-04T02:43:34;39.47;;;22.00;;
60859;SDS011;46694;54.382;9.708;2023-12-04T02:46:00;37.33;;;20.80;;
60859;SDS011;46694;54.382;9.708;2023-12-04T02:48:25;31.10;;;20.63;;
60859;SDS011;46694;54.382;9.708;2023-12-04T02:50:51;47.83;;;19.57;;
60859;SDS011;46694;54.382;9.708;2023-12-04T02:53:17;29.60;;;19.73;;
60859;SDS011;46694;54.382;9.708;2023-12-04T02:55:43;40.90;;;22.52;;
60859;SDS011;46694;54.382;9.708;2023-12-04T02:58:09;37.90;;;23.57;;
60859;SDS011;46694;54.382;9.708;2023-12-04T03:00:35;29.53;;;20.70;;
60859;SDS011;46694;54.382;9.708;2023-12-04T03:03:02;36.67;;;21.43;;
60859;SDS011;46694;54.382;9.708;2023-12-04T03:05:28;36.08;;;21.15;;
60859;SDS011;46694;54.382;9.708;2023-12-04T03:07:54;32.30;;;20.47;;
60859;SDS011;46694;54.382;9.708;2023-12-04T03:10:19;37.57;;;22.43;;
60859;SDS011;46694;54.382;9.708;2023-12-04T03:12:48;26.67;;;19.40;;
60859;SDS011;46694;54.382;9.708;2023-12-04T03:15:14;35.05;;;21.20;;
60859;SDS011;46694;54.382;9.708;2023-12-04T03:17:40;30.45;;;19.75;;
60859;SDS011;46694;54.382;9.708;2023-12-04T03:20:06;61.70;;;22.90;;
60859;SDS011;46694;54.382;9.708;2023-12-04T03:22:33;34.50;;;20.52;;
60859;SDS011;46694;54.382;9.708;2023-12-04T03:25:01;41.72;;;22.27;;
60859;SDS011;46694;54.382;9.708;2023-12-04T03:27:27;33.08;;;21.35;;
60859;SDS011;46694;54.382;9.708;2023-12-04T03:29:53;45.97;;;20.70;;
60859;SDS011;46694;54.382;9.708;2023-12-04T03:32:19;29.80;;;20.23;;
60859;SDS011;46694;54.382;9.708;2023-12-04T03:34:45;35.15;;;20.02;;
60859;SDS011;46694;54.382;9.708;2023-12-04T03:37:11;35.40;;;19.97;;
60859;SDS011;46694;54.382;9.708;2023-12-04T03:39:37;30.43;;;18.23;;
60859;SDS011;46694;54.382;9.708;2023-12-04T03:42:03;43.20;;;22.60;;
60859;SDS011;46694;54.382;9.708;2023-12-04T03:44:29;31.58;;;22.30;;
60859;SDS011;46694;54.382;9.708;2023-12-04T03:46:55;30.58;;;20.75;;
60859;SDS011;46694;54.382;9.708;2023-12-04T03:49:21;29.13;;;18.00;;
60859;SDS011;46694;54.382;9.708;2023-12-04T03:51:46;35.53;;;20.77;;
60859;SDS011;46694;54.382;9.708;2023-12-04T03:54:12;35.97;;;21.30;;
60859;SDS011;46694;54.382;9.708;2023-12-04T03:56:39;29.50;;;19.05;;
60859;SDS011;46694;54.382;9.708;2023-12-04T03:59:05;31.35;;;19.85;;
60859;SDS011;46694;54.382;9.708;2023-12-04T04:01:31;32.72;;;22.35;;
60859;SDS011;46694;54.382;9.708;2023-12-04T04:03:57;37.43;;;20.47;;
60859;SDS011;46694;54.382;9.708;2023-12-04T04:06:23;28.10;;;19.37;;
60859;SDS011;46694;54.382;9.708;2023-12-04T04:08:48;27.90;;;16.93;;
60859;SDS011;46694;54.382;9.708;2023-12-04T04:11:14;29.77;;;19.17;;
60859;SDS011;46694;54.382;9.708;2023-12-04T04:13:40;33.17;;;21.03;;
60859;SDS011;46694;54.382;9.708;2023-12-04T04:16:06;29.53;;;18.53;;
60859;SDS011;46694;54.382;9.708;2023-12-04T04:18:32;33.42;;;22.92;;
60859;SDS011;46694;54.382;9.708;2023-12-04T04:20:58;30.57;;;19.70;;
60859;SDS011;46694;54.382;9.708;2023-12-04T04:23:24;37.13;;;19.03;;
60859;SDS011;46694;54.382;9.708;2023-12-04T04:25:50;37.47;;;19.17;;
60859;SDS011;46694;54.382;9.708;2023-12-04T04:28:16;30.90;;;20.57;;
60859;SDS011;46694;54.382;9.708;2023-12-04T04:30:44;32.20;;;18.60;;
60859;SDS011;46694;54.382;9.708;2023-12-04T04:33:09;28.23;;;17.40;;
60859;SDS011;46694;54.382;9.708;2023-12-04T04:35:36;38.28;;;21.50;;
60859;SDS011;46694;54.382;9.708;2023-12-04T04:38:02;30.30;;;17.63;;
60859;SDS011;46694;54.382;9.708;2023-12-04T04:40:28;29.00;;;20.05;;
60859;SDS011;46694;54.382;9.708;2023-12-04T04:42:54;35.00;;;20.50;;
60859;SDS011;46694;54.382;9.708;2023-12-04T04:45:20;36.80;;;19.87;;
60859;SDS011;46694;54.382;9.708;2023-12-04T04:47:46;31.80;;;19.23;;
60859;SDS011;46694;54.382;9.708;2023-12-04T04:50:11;28.33;;;18.30;;
60859;SDS011;46694;54.382;9.708;2023-12-04T04:52:37;32.53;;;20.05;;
60859;SDS011;46694;54.382;9.708;2023-12-04T04:55:04;41.07;;;21.10;;
60859;SDS011;46694;54.382;9.708;2023-12-04T04:57:31;40.38;;;18.00;;
60859;SDS011;46694;54.382;9.708;2023-12-04T04:59:56;36.37;;;18.97;;
60859;SDS011;46694;54.382;9.708;2023-12-04T05:02:22;36.87;;;19.60;;
60859;SDS011;46694;54.382;9.708;2023-12-04T05:04:48;35.67;;;20.80;;
60859;SDS011;46694;54.382;9.708;2023-12-04T05:07:14;28.60;;;18.50;;
60859;SDS011;46694;54.382;9.708;2023-12-04T05:09:39;29.40;;;19.00;;
60859;SDS011;46694;54.382;9.708;2023-12-04T05:12:05;34.27;;;19.50;;
60859;SDS011;46694;54.382;9.708;2023-12-04T05:14:31;26.17;;;17.00;;
60859;SDS011;46694;54.382;9.708;2023-12-04T05:16:57;31.30;;;19.20;;
60859;SDS011;46694;54.382;9.708;2023-12-04T05:19:23;36.17;;;20.97;;
60859;SDS011;46694;54.382;9.708;2023-12-04T05:21:49;27.90;;;20.30;;
60859;SDS011;46694;54.382;9.708;2023-12-04T05:24:14;32.97;;;20.20;;
60859;SDS011;46694;54.382;9.708;2023-12-04T05:26:40;28.17;;;19.90;;
60859;SDS011;46694;54.382;9.708;2023-12-04T05:29:06;35.40;;;21.07;;
60859;SDS011;46694;54.382;9.708;2023-12-04T05:31:32;38.33;;;18.30;;
60859;SDS011;46694;54.382;9.708;2023-12-04T05:33:58;26.60;;;16.63;;
60859;SDS011;46694;54.382;9.708;2023-12-04T05:36:23;26.27;;;18.43;;
60859;SDS011;46694;54.382;9.708;2023-12-04T05:38:49;40.80;;;19.30;;
60859;SDS011;46694;54.382;9.708;2023-12-04T05:41:15;24.73;;;17.23;;
60859;SDS011;46694;54.382;9.708;2023-12-04T05:43:41;30.50;;;20.13;;
60859;SDS011;46694;54.382;9.708;2023-12-04T05:46:07;38.13;;;19.67;;
60859;SDS011;46694;54.382;9.708;2023-12-04T05:48:32;33.23;;;19.50;;
60859;SDS011;46694;54.382;9.708;2023-12-04T05:50:58;34.63;;;19.83;;
60859;SDS011;46694;54.382;9.708;2023-12-04T05:53:24;29.00;;;18.47;;
60859;SDS011;46694;54.382;9.708;2023-12-04T05:55:50;29.80;;;18.70;;
60859;SDS011;46694;54.382;9.708;2023-12-04T05:58:16;35.03;;;17.57;;
60859;SDS011;46694;54.382;9.708;2023-12-04T06:00:41;29.77;;;17.77;;
60859;SDS011;46694;54.382;9.708;2023-12-04T06:03:07;25.33;;;18.40;;
60859;SDS011;46694;54.382;9.708;2023-12-04T06:05:33;31.27;;;17.20;;
60859;SDS011;46694;54.382;9.708;2023-12-04T06:07:59;23.80;;;17.13;;
60859;SDS011;46694;54.382;9.708;2023-12-04T06:10:24;25.60;;;17.47;;
60859;SDS011;46694;54.382;9.708;2023-12-04T06:12:50;33.30;;;17.10;;
60859;SDS011;46694;54.382;9.708;2023-12-04T06:15:16;27.27;;;17.20;;
60859;SDS011;46694;54.382;9.708;2023-12-04T06:17:42;26.80;;;17.27;;
60859;SDS011;46694;54.382;9.708;2023-12-04T06:20:08;26.37;;;17.10;;
60859;SDS011;46694;54.382;9.708;2023-12-04T06:22:36;23.70;;;16.25;;
60859;SDS011;46694;54.382;9.708;2023-12-04T06:25:02;33.38;;;17.75;;
60859;SDS011;46694;54.382;9.708;2023-12-04T06:27:29;25.25;;;17.42;;
60859;SDS011;46694;54.382;9.708;2023-12-04T06:29:55;30.17;;;17.73;;
60859;SDS011;46694;54.382;9.708;2023-12-04T06:32:21;24.15;;;15.90;;
60859;SDS011;46694;54.382;9.708;2023-12-04T06:34:48;22.50;;;14.70;;
60859;SDS011;46694;54.382;9.708;2023-12-04T06:37:15;27.27;;;17.30;;
60859;SDS011;46694;54.382;9.708;2023-12-04T06:39:41;26.67;;;17.08;;
60859;SDS011;46694;54.382;9.708;2023-12-04T06:42:11;26.05;;;16.00;;
60859;SDS011;46694;54.382;9.708;2023-12-04T06:44:37;32.83;;;16.42;;
60859;SDS011;46694;54.382;9.708;2023-12-04T06:47:03;37.78;;;17.80;;
60859;SDS011;46694;54.382;9.708;2023-12-04T06:49:31;31.50;;;17.27;;
60859;SDS011;46694;54.382;9.708;2023-12-04T06:51:58;30.00;;;16.00;;
60859;SDS011;46694;54.382;9.708;2023-12-04T06:54:25;27.13;;;16.80;;
60859;SDS011;46694;54.382;9.708;2023-12-04T06:56:51;30.05;;;16.35;;
60859;SDS011;46694;54.382;9.708;2023-12-04T06:59:18;27.03;;;16.57;;
60859;SDS011;46694;54.382;9.708;2023-12-04T07:01:44;27.38;;;15.98;;
60859;SDS011;46694;54.382;9.708;2023-12-04T07:04:09;48.63;;;16.73;;
60859;SDS011;46694;54.382;9.708;2023-12-04T07:06:36;32.03;;;16.42;;
60859;SDS011;46694;54.382;9.708;2023-12-04T07:09:03;26.42;;;17.05;;
60859;SDS011;46694;54.382;9.708;2023-12-04T07:11:29;26.42;;;16.67;;
60859;SDS011;46694;54.382;9.708;2023-12-04T07:13:55;31.30;;;17.30;;
60859;SDS011;46694;54.382;9.708;2023-12-04T07:16:21;22.67;;;15.80;;
60859;SDS011;46694;54.382;9.708;2023-12-04T07:18:46;21.63;;;15.90;;
60859;SDS011;46694;54.382;9.708;2023-12-04T07:21:12;22.77;;;14.20;;
60859;SDS011;46694;54.382;9.708;2023-12-04T07:23:38;24.00;;;15.70;;
60859;SDS011;46694;54.382;9.708;2023-12-04T07:26:04;25.40;;;15.50;;
60859;SDS011;46694;54.382;9.708;2023-12-04T07:28:31;20.33;;;14.70;;
60859;SDS011;46694;54.382;9.708;2023-12-04T07:30:58;24.75;;;15.43;;
60859;SDS011;46694;54.382;9.708;2023-12-04T07:33:26;29.05;;;15.13;;
60859;SDS011;46694;54.382;9.708;2023-12-04T07:35:52;20.63;;;13.55;;
60859;SDS011;46694;54.382;9.708;2023-12-04T07:38:24;24.40;;;14.90;;
60859;SDS011;46694;54.382;9.708;2023-12-04T07:40:50;19.70;;;13.50;;
60859;SDS011;46694;54.382;9.708;2023-12-04T07:43:15;27.70;;;15.03;;
60859;SDS011;46694;54.382;9.708;2023-12-04T07:45:42;19.23;;;13.20;;
60859;SDS011;46694;54.382;9.708;2023-12-04T07:48:08;23.67;;;14.53;;
60859;SDS011;46694;54.382;9.708;2023-12-04T07:50:34;32.03;;;15.10;;
60859;SDS011;46694;54.382;9.708;2023-12-04T07:53:00;25.33;;;13.50;;
60859;SDS011;46694;54.382;9.708;2023-12-04T07:55:26;27.60;;;13.23;;
60859;SDS011;46694;54.382;9.708;2023-12-04T07:57:52;21.10;;;13.57;;
60859;SDS011;46694;54.382;9.708;2023-12-04T08:00:18;18.53;;;12.07;;
60859;SDS011;46694;54.382;9.708;2023-12-04T08:02:44;15.65;;;12.25;;
60859;SDS011;46694;54.382;9.708;2023-12-04T08:05:11;20.90;;;12.90;;
60859;SDS011;46694;54.382;9.708;2023-12-04T08:07:37;23.08;;;14.32;;
60859;SDS011;46694;54.382;9.708;2023-12-04T08:10:07;25.10;;;14.25;;
60859;SDS011;46694;54.382;9.708;2023-12-04T08:12:33;19.38;;;13.13;;
60859;SDS011;46694;54.382;9.708;2023-12-04T08:15:00;19.85;;;13.98;;
60859;SDS011;46694;54.382;9.708;2023-12-04T08:17:26;19.50;;;14.13;;
60859;SDS011;46694;54.382;9.708;2023-12-04T08:19:52;18.00;;;12.20;;
60859;SDS011;46694;54.382;9.708;2023-12-04T08:22:19;23.73;;;13.13;;
60859;SDS011;46694;54.382;9.708;2023-12-04T08:24:45;24.73;;;15.50;;
60859;SDS011;46694;54.382;9.708;2023-12-04T08:27:11;22.43;;;13.40;;
60859;SDS011;46694;54.382;9.708;2023-12-04T08:29:36;22.33;;;13.30;;
60859;SDS011;46694;54.382;9.708;2023-12-04T08:32:05;23.38;;;14.00;;
60859;SDS011;46694;54.382;9.708;2023-12-04T08:34:31;21.83;;;14.88;;
60859;SDS011;46694;54.382;9.708;2023-12-04T08:36:57;21.43;;;14.97;;
60859;SDS011;46694;54.382;9.708;2023-12-04T08:39:23;19.20;;;14.53;;
60859;SDS011;46694;54.382;9.708;2023-12-04T08:41:49;24.03;;;15.47;;
60859;SDS011;46694;54.382;9.708;2023-12-04T08:44:15;35.67;;;14.20;;
60859;SDS011;46694;54.382;9.708;2023-12-04T08:46:41;18.00;;;13.17;;
60859;SDS011;46694;54.382;9.708;2023-12-04T08:49:09;20.25;;;14.60;;
60859;SDS011;46694;54.382;9.708;2023-12-04T08:51:35;21.97;;;14.27;;
60859;SDS011;46694;54.382;9.708;2023-12-04T08:54:01;37.92;;;20.67;;
60859;SDS011;46694;54.382;9.708;2023-12-04T08:56:28;19.73;;;14.32;;
60859;SDS011;46694;54.382;9.708;2023-12-04T08:58:54;27.08;;;13.65;;
60859;SDS011;46694;54.382;9.708;2023-12-04T09:01:20;20.42;;;13.52;;
60859;SDS011;46694;54.382;9.708;2023-12-04T09:03:46;22.43;;;13.80;;
60859;SDS011;46694;54.382;9.708;2023-12-04T09:06:12;23.20;;;15.00;;
60859;SDS011;46694;54.382;9.708;2023-12-04T09:08:39;25.15;;;14.38;;
60859;SDS011;46694;54.382;9.708;2023-12-04T09:11:05;25.30;;;15.00;;
60859;SDS011;46694;54.382;9.708;2023-12-04T09:13:31;18.95;;;13.32;;
60859;SDS011;46694;54.382;9.708;2023-12-04T09:15:58;22.05;;;15.32;;
60859;SDS011;46694;54.382;9.708;2023-12-04T09:18:25;23.83;;;14.52;;
60859;SDS011;46694;54.382;9.708;2023-12-04T09:20:51;24.10;;;15.37;;
60859;SDS011;46694;54.382;9.708;2023-12-04T09:23:17;32.90;;;15.60;;
60859;SDS011;46694;54.382;9.708;2023-12-04T09:25:42;22.57;;;15.80;;
60859;SDS011;46694;54.382;9.708;2023-12-04T09:28:08;42.30;;;16.20;;
60859;SDS011;46694;54.382;9.708;2023-12-04T09:30:35;25.77;;;15.37;;
60859;SDS011;46694;54.382;9.708;2023-12-04T09:33:02;23.90;;;14.45;;
60859;SDS011;46694;54.382;9.708;2023-12-04T09:35:28;29.07;;;15.53;;
60859;SDS011;46694;54.382;9.708;2023-12-04T09:37:54;21.73;;;14.33;;
60859;SDS011;46694;54.382;9.708;2023-12-04T09:40:20;25.58;;;15.35;;
60859;SDS011;46694;54.382;9.708;2023-12-04T09:42:46;30.90;;;16.53;;
60859;SDS011;46694;54.382;9.708;2023-12-04T09:45:12;22.75;;;14.63;;
60859;SDS011;46694;54.382;9.708;2023-12-04T09:47:38;26.27;;;15.43;;
60859;SDS011;46694;54.382;9.708;2023-12-04T09:50:05;24.10;;;14.35;;
60859;SDS011;46694;54.382;9.708;2023-12-04T09:52:32;18.77;;;15.07;;
60859;SDS011;46694;54.382;9.708;2023-12-04T09:55:00;19.15;;;15.02;;
60859;SDS011;46694;54.382;9.708;2023-12-04T09:57:26;19.35;;;15.65;;
60859;SDS011;46694;54.382;9.708;2023-12-04T09:59:53;30.60;;;14.77;;
60859;SDS011;46694;54.382;9.708;2023-12-04T10:02:20;26.95;;;14.88;;
60859;SDS011;46694;54.382;9.708;2023-12-04T10:04:46;23.60;;;15.40;;
60859;SDS011;46694;54.382;9.708;2023-12-04T10:07:13;25.48;;;14.85;;
60859;SDS011;46694;54.382;9.708;2023-12-04T10:09:38;21.13;;;14.33;;
60859;SDS011;46694;54.382;9.708;2023-12-04T10:12:06;23.15;;;15.93;;
60859;SDS011;46694;54.382;9.708;2023-12-04T10:14:32;24.38;;;14.93;;
60859;SDS011;46694;54.382;9.708;2023-12-04T10:16:58;21.43;;;13.90;;
60859;SDS011;46694;54.382;9.708;2023-12-04T10:19:25;21.23;;;14.23;;
60859;SDS011;46694;54.382;9.708;2023-12-04T10:21:54;22.50;;;15.40;;
60859;SDS011;46694;54.382;9.708;2023-12-04T10:24:31;24.85;;;16.70;;
60859;SDS011;46694;54.382;9.708;2023-12-04T10:26:58;22.70;;;13.52;;
60859;SDS011;46694;54.382;9.708;2023-12-04T10:29:26;24.58;;;16.15;;
60859;SDS011;46694;54.382;9.708;2023-12-04T10:31:55;22.92;;;14.70;;
60859;SDS011;46694;54.382;9.708;2023-12-04T10:34:25;22.33;;;14.20;;
60859;SDS011;46694;54.382;9.708;2023-12-04T10:36:51;28.63;;;16.42;;
60859;SDS011;46694;54.382;9.708;2023-12-04T10:39:17;24.00;;;15.00;;
60859;SDS011;46694;54.382;9.708;2023-12-04T10:41:43;24.73;;;16.07;;
60859;SDS011;46694;54.382;9.708;2023-12-04T10:44:09;23.10;;;15.80;;
60859;SDS011;46694;54.382;9.708;2023-12-04T10:46:42;21.23;;;15.05;;
60859;SDS011;46694;54.382;9.708;2023-12-04T10:49:12;20.45;;;13.50;;
60859;SDS011;46694;54.382;9.708;2023-12-04T10:51:42;30.23;;;15.02;;
60859;SDS011;46694;54.382;9.708;2023-12-04T10:54:12;27.10;;;15.70;;
60859;SDS011;46694;54.382;9.708;2023-12-04T10:56:38;28.95;;;16.88;;
60859;SDS011;46694;54.382;9.708;2023-12-04T10:59:10;26.77;;;18.42;;
60859;SDS011;46694;54.382;9.708;2023-12-04T11:01:37;28.55;;;18.35;;
60859;SDS011;46694;54.382;9.708;2023-12-04T11:04:05;37.30;;;17.95;;
60859;SDS011;46694;54.382;9.708;2023-12-04T11:06:39;23.38;;;16.55;;
60859;SDS011;46694;54.382;9.708;2023-12-04T11:09:05;29.00;;;18.85;;
60859;SDS011;46694;54.382;9.708;2023-12-04T11:11:36;32.10;;;18.42;;
60859;SDS011;46694;54.382;9.708;2023-12-04T11:14:09;30.50;;;18.25;;
60859;SDS011;46694;54.382;9.708;2023-12-04T11:16:38;28.20;;;17.60;;
60859;SDS011;46694;54.382;9.708;2023-12-04T11:19:31;29.88;;;18.52;;
60859;SDS011;46694;54.382;9.708;2023-12-04T11:22:07;25.90;;;16.52;;
60859;SDS011;46694;54.382;9.708;2023-12-04T11:24:35;26.90;;;18.23;;
60859;SDS011;46694;54.382;9.708;2023-12-04T11:27:02;26.48;;;17.90;;
60859;SDS011;46694;54.382;9.708;2023-12-04T11:29:29;25.73;;;16.83;;
60859;SDS011;46694;54.382;9.708;2023-12-04T11:31:56;34.10;;;16.92;;
60859;SDS011;46694;54.382;9.708;2023-12-04T11:34:21;31.90;;;18.40;;
60859;SDS011;46694;54.382;9.708;2023-12-04T11:36:50;31.15;;;19.75;;
60859;SDS011;46694;54.382;9.708;2023-12-04T11:39:18;35.58;;;19.17;;
60859;SDS011;46694;54.382;9.708;2023-12-04T11:41:44;32.00;;;18.42;;
60859;SDS011;46694;54.382;9.708;2023-12-04T11:44:14;30.90;;;19.30;;
60859;SDS011;46694;54.382;9.708;2023-12-04T11:46:41;39.08;;;20.35;;
60859;SDS011;46694;54.382;9.708;2023-12-04T11:51:51;35.83;;;20.83;;
60859;SDS011;46694;54.382;9.708;2023-12-04T11:54:17;35.90;;;21.17;;
60859;SDS011;46694;54.382;9.708;2023-12-04T11:59:38;28.63;;;18.40;;
60859;SDS011;46694;54.382;9.708;2023-12-04T12:02:11;36.72;;;19.50;;
60859;SDS011;46694;54.382;9.708;2023-12-04T12:04:37;29.90;;;19.70;;
60859;SDS011;46694;54.382;9.708;2023-12-04T12:07:04;50.30;;;20.10;;
60859;SDS011;46694;54.382;9.708;2023-12-04T12:09:31;33.28;;;18.50;;
60859;SDS011;46694;54.382;9.708;2023-12-04T12:12:01;33.35;;;20.15;;
60859;SDS011;46694;54.382;9.708;2023-12-04T12:14:29;43.95;;;20.13;;
60859;SDS011;46694;54.382;9.708;2023-12-04T12:16:57;30.05;;;18.92;;
60859;SDS011;46694;54.382;9.708;2023-12-04T12:19:25;38.38;;;19.35;;
60859;SDS011;46694;54.382;9.708;2023-12-04T12:21:51;28.80;;;19.63;;
60859;SDS011;46694;54.382;9.708;2023-12-04T12:24:17;28.37;;;18.47;;
60859;SDS011;46694;54.382;9.708;2023-12-04T12:26:50;33.95;;;18.63;;
60859;SDS011;46694;54.382;9.708;2023-12-04T12:29:16;41.72;;;20.55;;
60859;SDS011;46694;54.382;9.708;2023-12-04T12:31:44;29.85;;;19.98;;
60859;SDS011;46694;54.382;9.708;2023-12-04T12:34:14;45.72;;;19.58;;
60859;SDS011;46694;54.382;9.708;2023-12-04T12:36:40;27.33;;;20.45;;
60859;SDS011;46694;54.382;9.708;2023-12-04T12:39:06;40.27;;;20.27;;
60859;SDS011;46694;54.382;9.708;2023-12-04T12:41:33;37.08;;;21.27;;
60859;SDS011;46694;54.382;9.708;2023-12-04T12:44:00;38.72;;;21.80;;
60859;SDS011;46694;54.382;9.708;2023-12-04T12:46:27;28.73;;;20.08;;
60859;SDS011;46694;54.382;9.708;2023-12-04T12:48:53;31.15;;;19.13;;
60859;SDS011;46694;54.382;9.708;2023-12-04T12:51:18;28.23;;;19.17;;
60859;SDS011;46694;54.382;9.708;2023-12-04T12:53:45;38.25;;;19.95;;
60859;SDS011;46694;54.382;9.708;2023-12-04T12:56:10;34.80;;;19.50;;
60859;SDS011;46694;54.382;9.708;2023-12-04T12:58:36;38.80;;;19.60;;
60859;SDS011;46694;54.382;9.708;2023-12-04T13:01:02;30.27;;;19.83;;
60859;SDS011;46694;54.382;9.708;2023-12-04T13:03:30;30.95;;;19.40;;
60859;SDS011;46694;54.382;9.708;2023-12-04T13:05:58;33.30;;;20.63;;
60859;SDS011;46694;54.382;9.708;2023-12-04T13:08:24;34.20;;;20.17;;
60859;SDS011;46694;54.382;9.708;2023-12-04T13:10:50;32.40;;;21.43;;
60859;SDS011;46694;54.382;9.708;2023-12-04T13:13:17;43.20;;;20.45;;
60859;SDS011;46694;54.382;9.708;2023-12-04T13:15:43;33.50;;;20.37;;
60859;SDS011;46694;54.382;9.708;2023-12-04T13:18:09;30.00;;;19.67;;
60859;SDS011;46694;54.382;9.708;2023-12-04T13:20:38;38.22;;;19.55;;
60859;SDS011;46694;54.382;9.708;2023-12-04T13:23:04;29.33;;;19.25;;
60859;SDS011;46694;54.382;9.708;2023-12-04T13:25:30;34.10;;;20.50;;
60859;SDS011;46694;54.382;9.708;2023-12-04T13:27:55;29.70;;;19.43;;
60859;SDS011;46694;54.382;9.708;2023-12-04T13:30:21;26.87;;;18.47;;
60859;SDS011;46694;54.382;9.708;2023-12-04T13:32:47;32.20;;;21.57;;
60859;SDS011;46694;54.382;9.708;2023-12-04T13:35:24;32.97;;;20.35;;
60859;SDS011;46694;54.382;9.708;2023-12-04T13:37:50;42.28;;;29.08;;
60859;SDS011;46694;54.382;9.708;2023-12-04T13:40:21;33.70;;;22.38;;
60859;SDS011;46694;54.382;9.708;2023-12-04T13:42:51;31.17;;;20.65;;
60859;SDS011;46694;54.382;9.708;2023-12-04T13:45:36;29.15;;;18.00;;
60859;SDS011;46694;54.382;9.708;2023-12-04T13:48:02;33.30;;;19.70;;
60859;SDS011;46694;54.382;9.708;2023-12-04T13:50:28;36.35;;;20.23;;
60859;SDS011;46694;54.382;9.708;2023-12-04T13:52:54;41.37;;;20.60;;
60859;SDS011;46694;54.382;9.708;2023-12-04T13:55:21;30.63;;;19.65;;
60859;SDS011;46694;54.382;9.708;2023-12-04T13:58:07;26.25;;;18.75;;
60859;SDS011;46694;54.382;9.708;2023-12-04T14:04:06;34.78;;;19.25;;
60859;SDS011;46694;54.382;9.708;2023-12-04T14:06:33;31.40;;;20.85;;
60859;SDS011;46694;54.382;9.708;2023-12-04T14:08:59;27.35;;;21.10;;
60859;SDS011;46694;54.382;9.708;2023-12-04T14:11:25;37.77;;;17.90;;
60859;SDS011;46694;54.382;9.708;2023-12-04T14:13:51;39.73;;;21.03;;
60859;SDS011;46694;54.382;9.708;2023-12-04T14:16:17;27.40;;;18.97;;
60859;SDS011;46694;54.382;9.708;2023-12-04T14:18:43;36.03;;;18.65;;
60859;SDS011;46694;54.382;9.708;2023-12-04T14:21:09;37.23;;;21.33;;
60859;SDS011;46694;54.382;9.708;2023-12-04T14:23:35;40.35;;;26.15;;
60859;SDS011;46694;54.382;9.708;2023-12-04T14:26:01;33.83;;;22.07;;
60859;SDS011;46694;54.382;9.708;2023-12-04T14:28:28;46.38;;;20.48;;